Time;durP1;ratioP1;P1;durP2;ratioP2;P2;SDS_P1;SDS_P2;PMS_P1;PMS_P2;Temp;Humidity;BMP_temperature;BMP_pressure;BME280_temperature;BME280_humidity;BME280_pressure;Samples;Min_cycle;Max_cycle;Signal;HPM_P1;HPM_P2
2021/09/25 00:01:02;;;;;;;2.08;1.95;;;;;;;20.02;67.38;100358.69;4963080;28;20062;-73
2021/09/25 00:03:28;;;;;;;1.63;1.55;;;;;;;20.03;67.41;100355.59;4961603;28;20043;-71
2021/09/25 00:05:53;;;;;;;2.80;1.50;;;;;;;20.03;66.84;100358.38;4964747;28;20034;-72
2021/09/25 00:08:18;;;;;;;1.63;1.52;;;;;;;20.02;67.30;100353.94;4949211;28;20465;-72
2021/09/25 00:10:44;;;;;;;1.33;1.23;;;;;;;20.03;67.04;100358.38;4932868;28;20057;-72
2021/09/25 00:13:10;;;;;;;2.95;1.77;;;;;;;19.99;66.79;100353.78;4988414;28;20026;-73
2021/09/25 00:15:36;;;;;;;2.03;1.92;;;;;;;19.98;66.77;100358.53;4964015;28;20061;-73
2021/09/25 00:18:04;;;;;;;3.35;2.65;;;;;;;19.96;67.36;100344.19;4962493;28;20026;-74
2021/09/25 00:20:30;;;;;;;1.35;1.27;;;;;;;19.95;67.39;100342.53;4985890;28;20111;-73
2021/09/25 00:22:56;;;;;;;1.23;1.10;;;;;;;19.97;66.61;100343.00;4963970;28;20050;-74
2021/09/25 00:25:22;;;;;;;0.52;0.52;;;;;;;20.01;67.02;100346.75;4952432;28;20030;-73
2021/09/25 00:27:47;;;;;;;0.90;0.90;;;;;;;20.04;66.84;100337.75;4980554;28;20054;-73
2021/09/25 00:30:14;;;;;;;1.00;0.93;;;;;;;20.08;66.72;100339.88;4962509;28;20062;-73
2021/09/25 00:32:40;;;;;;;1.75;1.65;;;;;;;20.08;67.00;100335.16;4959177;28;20031;-73
2021/09/25 00:35:06;;;;;;;1.33;1.05;;;;;;;20.09;66.79;100335.97;4973110;28;20129;-72
2021/09/25 00:37:32;;;;;;;2.00;1.52;;;;;;;20.08;66.52;100345.44;4975241;28;20445;-73
2021/09/25 00:39:58;;;;;;;1.25;1.25;;;;;;;20.05;66.75;100342.19;4988051;28;20130;-74
2021/09/25 00:42:24;;;;;;;1.40;1.25;;;;;;;20.04;66.89;100343.31;4947022;28;20420;-73
2021/09/25 00:44:49;;;;;;;1.52;1.40;;;;;;;20.04;66.41;100340.53;4967222;28;20065;-73
2021/09/25 00:47:15;;;;;;;1.30;1.20;;;;;;;20.03;66.49;100338.94;4979494;28;20043;-72
2021/09/25 00:49:40;;;;;;;0.82;0.80;;;;;;;20.07;66.23;100343.81;4978169;28;20033;-72
2021/09/25 00:52:07;;;;;;;1.20;1.20;;;;;;;20.08;66.75;100345.44;4967951;28;20054;-73
2021/09/25 00:54:38;;;;;;;3.95;1.05;;;;;;;20.09;66.14;100341.50;4972408;28;22567;-71
2021/09/25 00:57:04;;;;;;;1.35;1.25;;;;;;;20.02;66.47;100330.94;4963014;28;20051;-72
2021/09/25 00:59:30;;;;;;;1.48;1.38;;;;;;;20.05;65.98;100330.28;4951270;28;20030;-71
2021/09/25 01:01:57;;;;;;;2.10;2.00;;;;;;;20.09;66.35;100335.97;4956790;28;20042;-71
2021/09/25 01:04:23;;;;;;;2.38;1.73;;;;;;;20.05;66.39;100331.06;4977053;28;20055;-70
2021/09/25 01:06:48;;;;;;;1.33;1.25;;;;;;;20.08;66.06;100334.31;4974083;28;20042;-70
2021/09/25 01:09:14;;;;;;;1.33;1.23;;;;;;;20.08;66.11;100329.59;4979563;28;20030;-70
2021/09/25 01:11:40;;;;;;;1.10;1.10;;;;;;;20.10;66.16;100326.50;4959597;28;20046;-69
2021/09/25 01:14:06;;;;;;;1.23;1.23;;;;;;;20.08;66.06;100323.22;4976548;28;20038;-70
2021/09/25 01:16:32;;;;;;;1.10;1.10;;;;;;;20.09;66.01;100322.09;4943061;29;20034;-71
2021/09/25 01:18:58;;;;;;;1.73;1.10;;;;;;;20.10;65.75;100327.31;4957766;28;20113;-72
2021/09/25 01:21:24;;;;;;;1.83;1.73;;;;;;;20.08;65.91;100323.22;4985175;28;20027;-71
2021/09/25 01:23:49;;;;;;;0.70;0.70;;;;;;;20.10;65.76;100326.50;4979291;28;20357;-70
2021/09/25 01:26:16;;;;;;;0.65;0.65;;;;;;;20.11;65.75;100328.13;4960105;28;20038;-69
2021/09/25 01:28:43;;;;;;;1.58;1.08;;;;;;;20.14;66.03;100338.56;4961639;28;20476;-70
2021/09/25 01:31:11;;;;;;;1.13;1.13;;;;;;;20.14;66.06;100324.69;4981445;28;20052;-71
2021/09/25 01:33:48;;;;;;;2.05;1.25;;;;;;;20.11;65.64;100323.38;4972825;28;20034;-70
2021/09/25 01:36:16;;;;;;;1.52;1.13;;;;;;;20.08;65.73;100321.28;4972834;28;20050;-69
2021/09/25 01:38:43;;;;;;;1.50;1.40;;;;;;;20.04;65.81;100312.78;4979188;28;20053;-71
2021/09/25 01:41:11;;;;;;;1.27;1.17;;;;;;;20.05;65.76;100317.19;4944160;29;20370;-69
2021/09/25 01:43:37;;;;;;;1.70;1.60;;;;;;;20.04;66.48;100326.66;4964875;28;20032;-69
2021/09/25 01:46:03;;;;;;;1.70;1.60;;;;;;;20.02;66.47;100320.66;4978072;28;20046;-69
2021/09/25 01:48:29;;;;;;;2.13;1.70;;;;;;;19.98;66.21;100316.91;4968747;28;20030;-69
2021/09/25 01:50:54;;;;;;;1.38;1.27;;;;;;;20.00;66.12;100327.66;4959477;28;20045;-70
2021/09/25 01:53:21;;;;;;;0.80;0.80;;;;;;;20.00;66.34;100328.47;4976478;28;20117;-70
2021/09/25 01:55:47;;;;;;;0.60;0.60;;;;;;;20.00;66.29;100334.03;4968556;28;20027;-70
2021/09/25 01:58:13;;;;;;;0.80;0.80;;;;;;;19.99;66.08;100329.63;4978457;28;20107;-69
2021/09/25 02:00:38;;;;;;;1.13;1.02;;;;;;;19.99;66.11;100332.41;4968576;28;20037;-68
2021/09/25 02:03:07;;;;;;;0.70;0.70;;;;;;;20.02;66.16;100330.94;4952737;28;20027;-69
2021/09/25 02:05:33;;;;;;;0.73;0.70;;;;;;;20.01;66.43;100330.09;4968543;28;20030;-70
2021/09/25 02:07:59;;;;;;;0.50;0.50;;;;;;;20.01;66.15;100329.31;4972939;28;20031;-70
2021/09/25 02:10:26;;;;;;;0.70;0.70;;;;;;;20.02;66.20;100326.19;4963417;28;20089;-70
2021/09/25 02:12:51;;;;;;;0.80;0.80;;;;;;;20.01;65.91;100319.00;4948963;28;20023;-69
2021/09/25 02:15:17;;;;;;;0.68;0.68;;;;;;;20.04;65.80;100323.09;4929651;28;20038;-70
2021/09/25 02:17:42;;;;;;;0.52;0.52;;;;;;;20.04;66.05;100318.34;4966506;28;20090;-70
2021/09/25 02:20:09;;;;;;;0.70;0.70;;;;;;;20.05;65.94;100317.19;4973766;28;20030;-69
2021/09/25 02:22:35;;;;;;;0.57;0.57;;;;;;;20.05;65.86;100317.19;4949044;28;20043;-69
2021/09/25 02:25:02;;;;;;;0.30;0.30;;;;;;;20.05;65.89;100325.53;4938150;29;20551;-69
2021/09/25 02:27:28;;;;;;;0.43;0.43;;;;;;;20.08;65.76;100315.72;4975303;28;20090;-69
2021/09/25 02:29:53;;;;;;;0.30;0.30;;;;;;;20.08;65.95;100317.66;4956635;28;20148;-69
2021/09/25 02:32:18;;;;;;;1.63;0.38;;;;;;;20.07;65.57;100304.97;4969457;28;20027;-68
2021/09/25 02:34:44;;;;;;;0.20;0.20;;;;;;;20.10;65.78;100304.28;4983797;28;20035;-69
2021/09/25 02:37:09;;;;;;;0.30;0.30;;;;;;;20.10;65.96;100305.09;4975779;28;20037;-69
2021/09/25 02:39:36;;;;;;;0.25;0.25;;;;;;;20.13;65.37;100309.97;4943715;28;20123;-68
2021/09/25 02:42:02;;;;;;;0.30;0.30;;;;;;;20.15;65.97;100306.88;4965489;28;20041;-70
2021/09/25 02:44:28;;;;;;;0.20;0.20;;;;;;;20.16;65.47;100300.16;4975711;28;20034;-72
2021/09/25 02:46:53;;;;;;;0.30;0.30;;;;;;;20.19;65.66;100302.28;4979109;28;20066;-73
2021/09/25 02:49:21;;;;;;;0.35;0.22;;;;;;;20.16;65.56;100297.41;4966683;28;20073;-73
2021/09/25 02:51:47;;;;;;;0.30;0.30;;;;;;;20.18;65.90;100298.69;4972448;28;20041;-71
2021/09/25 02:54:13;;;;;;;0.63;0.63;;;;;;;20.13;65.81;100304.41;4972171;28;20682;-72
2021/09/25 02:56:38;;;;;;;0.50;0.45;;;;;;;20.09;65.65;100294.31;4959944;28;20034;-69
2021/09/25 02:59:05;;;;;;;0.80;0.75;;;;;;;20.07;66.24;100293.84;4955953;28;20034;-71
2021/09/25 03:01:31;;;;;;;0.40;0.30;;;;;;;20.00;66.60;100283.25;4976432;28;20029;-72
2021/09/25 03:03:56;;;;;;;0.50;0.40;;;;;;;20.03;66.36;100291.75;4964267;28;20031;-71
2021/09/25 03:06:23;;;;;;;0.52;0.52;;;;;;;20.02;66.10;100292.88;4961278;28;20034;-72
2021/09/25 03:08:49;;;;;;;0.70;0.50;;;;;;;20.00;66.13;100295.16;4991079;28;20038;-71
2021/09/25 03:11:14;;;;;;;0.50;0.30;;;;;;;20.02;65.99;100290.13;4946034;28;20041;-72
2021/09/25 03:13:40;;;;;;;0.30;0.30;;;;;;;20.02;65.82;100287.34;4954430;28;20039;-72
2021/09/25 03:16:05;;;;;;;0.40;0.40;;;;;;;20.03;66.29;100294.53;4952245;28;20107;-70
2021/09/25 03:18:31;;;;;;;0.82;0.50;;;;;;;19.99;66.21;100295.50;4957470;28;20030;-71
2021/09/25 03:20:56;;;;;;;0.40;0.40;;;;;;;19.95;66.42;100291.78;4955773;28;20039;-74
2021/09/25 03:23:22;;;;;;;0.32;0.30;;;;;;;19.94;65.93;100302.06;4979196;28;20034;-71
2021/09/25 03:25:47;;;;;;;0.30;0.30;;;;;;;19.92;66.51;100287.72;4955742;28;20031;-71
2021/09/25 03:28:12;;;;;;;0.40;0.30;;;;;;;19.90;66.38;100273.34;4974843;28;20039;-72
2021/09/25 03:30:38;;;;;;;0.60;0.60;;;;;;;19.90;66.13;100281.66;4964710;28;20087;-74
2021/09/25 03:33:04;;;;;;;0.35;0.35;;;;;;;19.90;66.54;100280.84;4977702;28;20050;-72
2021/09/25 03:35:30;;;;;;;0.40;0.40;;;;;;;19.81;66.42;100267.81;4971992;28;20037;-74
2021/09/25 03:37:55;;;;;;;0.20;0.20;;;;;;;19.91;66.50;100272.19;4944211;28;20049;-72
2021/09/25 03:40:24;;;;;;;0.40;0.40;;;;;;;19.92;66.31;100275.78;4960971;28;20042;-73
2021/09/25 03:42:50;;;;;;;0.60;0.38;;;;;;;19.93;66.60;100272.69;4960631;28;20090;-74
2021/09/25 03:45:15;;;;;;;0.30;0.28;;;;;;;19.92;66.30;100271.06;4946647;28;20182;-72
2021/09/25 03:47:41;;;;;;;0.38;0.30;;;;;;;19.93;66.23;100277.41;4958634;28;20031;-72
2021/09/25 03:50:08;;;;;;;0.40;0.40;;;;;;;19.92;66.33;100276.63;4974904;28;20019;-70
2021/09/25 03:52:34;;;;;;;0.17;0.17;;;;;;;19.89;66.02;100277.28;4953516;28;20037;-72
2021/09/25 03:55:01;;;;;;;3.00;0.40;;;;;;;19.79;66.71;100267.34;4988678;28;20090;-70
2021/09/25 03:57:30;;;;;;;0.93;0.40;;;;;;;19.79;66.27;100277.66;4959423;28;20022;-71
2021/09/25 03:59:56;;;;;;;0.40;0.40;;;;;;;19.77;66.18;100275.19;4942833;28;20039;-70
2021/09/25 04:02:21;;;;;;;0.30;0.30;;;;;;;19.75;66.69;100273.88;4968810;28;20891;-69
2021/09/25 04:04:47;;;;;;;0.20;0.20;;;;;;;19.74;66.49;100270.25;4962976;28;20062;-69
2021/09/25 04:07:12;;;;;;;0.20;0.10;;;;;;;19.74;66.28;100266.69;4957337;28;20027;-69
2021/09/25 04:09:38;;;;;;;0.10;0.10;;;;;;;19.74;66.36;100263.91;4978872;28;20062;-69
2021/09/25 04:12:03;;;;;;;0.13;0.13;;;;;;;19.75;65.90;100260.00;4945832;28;20484;-71
2021/09/25 04:14:29;;;;;;;0.10;0.10;;;;;;;19.76;65.96;100264.41;4949111;28;20030;-72
2021/09/25 04:16:54;;;;;;;0.00;0.00;;;;;;;19.82;66.18;100271.44;4968831;28;20034;-73
2021/09/25 04:19:20;;;;;;;0.00;0.00;;;;;;;19.80;66.08;100262.59;4970883;28;20074;-73
2021/09/25 04:21:46;;;;;;;0.00;0.00;;;;;;;19.83;65.55;100262.78;4985101;28;20423;-72
2021/09/25 04:24:12;;;;;;;0.00;0.00;;;;;;;19.84;65.74;100269.13;4984602;28;20046;-73
2021/09/25 04:26:37;;;;;;;0.10;0.10;;;;;;;19.81;66.22;100269.78;4965935;28;20045;-72
2021/09/25 04:29:03;;;;;;;0.17;0.10;;;;;;;19.79;65.67;100266.56;4962073;28;20079;-71
2021/09/25 04:31:29;;;;;;;0.13;0.10;;;;;;;19.78;66.16;100262.09;4975915;28;20057;-71
2021/09/25 04:33:54;;;;;;;0.10;0.10;;;;;;;19.78;65.71;100270.44;4960252;28;20023;-71
2021/09/25 04:36:20;;;;;;;0.10;0.10;;;;;;;19.76;65.95;100268.00;4970776;28;20054;-73
2021/09/25 04:38:46;;;;;;;0.10;0.10;;;;;;;19.74;66.21;100263.91;4973695;28;20031;-72
2021/09/25 04:41:11;;;;;;;0.30;0.30;;;;;;;19.70;66.18;100255.44;4965754;28;20031;-72
2021/09/25 04:43:37;;;;;;;0.30;0.30;;;;;;;19.65;66.00;100255.63;4976137;28;20078;-73
2021/09/25 04:46:02;;;;;;;0.15;0.10;;;;;;;19.62;66.60;100256.28;4977259;28;20545;-72
2021/09/25 04:48:27;;;;;;;0.00;0.00;;;;;;;19.62;66.71;100250.75;4957717;28;20607;-73
2021/09/25 04:50:53;;;;;;;0.10;0.10;;;;;;;19.62;65.86;100246.00;4967400;28;20027;-73
2021/09/25 04:53:18;;;;;;;0.00;0.00;;;;;;;19.62;66.33;100246.00;4970026;28;20039;-74
2021/09/25 04:55:45;;;;;;;0.00;0.00;;;;;;;19.64;65.80;100254.81;4980114;28;20042;-72
2021/09/25 04:58:11;;;;;;;0.00;0.00;;;;;;;19.67;65.89;100248.59;4963071;28;20374;-73
2021/09/25 05:00:38;;;;;;;0.00;0.00;;;;;;;19.69;65.68;100240.75;4968180;28;20152;-75
2021/09/25 05:03:04;;;;;;;0.08;0.00;;;;;;;19.71;65.63;100241.25;4958124;28;20039;-74
2021/09/25 05:05:29;;;;;;;0.00;0.00;;;;;;;19.74;66.24;100247.28;4981871;28;20439;-72
2021/09/25 05:07:55;;;;;;;0.00;0.00;;;;;;;19.74;65.76;100250.03;4971702;28;20536;-73
2021/09/25 05:10:20;;;;;;;0.10;0.10;;;;;;;19.75;65.57;100243.34;4978410;28;20034;-71
2021/09/25 05:12:46;;;;;;;0.00;0.00;;;;;;;19.76;65.83;100231.13;4981024;28;20039;-71
2021/09/25 05:15:12;;;;;;;0.00;0.00;;;;;;;19.78;65.89;100243.53;4947464;28;20041;-72
2021/09/25 05:17:37;;;;;;;0.00;0.00;;;;;;;19.79;65.52;100249.91;4970656;28;20048;-73
2021/09/25 05:20:05;;;;;;;0.00;0.00;;;;;;;19.78;65.36;100248.25;4964647;28;20038;-73
2021/09/25 05:22:31;;;;;;;0.13;0.13;;;;;;;19.76;65.54;100247.78;4960286;28;20027;-73
2021/09/25 05:24:56;;;;;;;0.20;0.15;;;;;;;19.73;65.76;100254.78;4987417;28;20022;-72
2021/09/25 05:27:21;;;;;;;0.20;0.20;;;;;;;19.70;65.52;100253.47;4951491;28;20133;-72
2021/09/25 05:29:47;;;;;;;0.25;0.20;;;;;;;19.68;66.24;100255.78;4988339;28;20034;-73
2021/09/25 05:32:12;;;;;;;0.20;0.20;;;;;;;19.65;66.23;100250.88;4979496;28;20055;-74
2021/09/25 05:34:41;;;;;;;0.30;0.20;;;;;;;19.63;66.38;100247.63;4964347;28;20159;-72
2021/09/25 05:37:07;;;;;;;0.20;0.20;;;;;;;19.61;65.75;100247.16;4975674;28;20031;-71
2021/09/25 05:39:32;;;;;;;0.20;0.10;;;;;;;19.61;66.33;100255.47;4978101;28;20540;-73
2021/09/25 05:41:58;;;;;;;0.20;0.20;;;;;;;19.59;66.44;100243.88;4963271;28;20125;-73
2021/09/25 05:44:23;;;;;;;0.55;0.10;;;;;;;19.59;66.54;100245.84;4962208;28;20030;-72
2021/09/25 05:46:49;;;;;;;0.20;0.20;;;;;;;19.58;66.43;100238.69;4961549;28;20057;-72
2021/09/25 05:49:14;;;;;;;0.10;0.10;;;;;;;19.57;66.00;100240.66;4980867;28;20070;-74
2021/09/25 05:51:40;;;;;;;0.10;0.10;;;;;;;19.58;66.28;100242.28;4956022;28;20050;-74
2021/09/25 05:54:05;;;;;;;0.00;0.00;;;;;;;19.58;66.36;100249.78;4978339;28;20031;-72
2021/09/25 05:56:30;;;;;;;0.10;0.10;;;;;;;19.58;66.01;100260.88;4944820;28;20039;-73
2021/09/25 05:58:56;;;;;;;0.03;0.03;;;;;;;19.55;66.31;100248.47;4980801;28;20045;-74
2021/09/25 06:01:21;;;;;;;0.10;0.10;;;;;;;19.52;65.98;100260.22;4959251;28;20035;-71
2021/09/25 06:03:47;;;;;;;0.10;0.10;;;;;;;19.44;66.09;100256.34;4975680;28;20035;-71
2021/09/25 06:06:12;;;;;;;0.20;0.20;;;;;;;19.47;66.37;100265.97;4978225;28;20033;-70
2021/09/25 06:08:38;;;;;;;0.10;0.10;;;;;;;19.48;66.12;100264.81;4968786;28;20031;-70
2021/09/25 06:11:03;;;;;;;0.10;0.10;;;;;;;19.45;66.89;100268.22;4960005;28;20027;-75
2021/09/25 06:13:28;;;;;;;0.50;0.20;;;;;;;19.41;66.96;100267.28;4973503;28;20041;-74
2021/09/25 06:15:54;;;;;;;0.10;0.10;;;;;;;19.35;66.61;100258.31;4945298;28;20061;-73
2021/09/25 06:18:19;;;;;;;0.15;0.15;;;;;;;19.33;67.05;100258.66;4966265;23;20059;-73
2021/09/25 06:20:45;;;;;;;0.15;0.15;;;;;;;19.34;67.15;100256.69;4956665;28;20462;-74
2021/09/25 06:23:10;;;;;;;0.17;0.17;;;;;;;19.34;67.27;100257.50;4946715;29;20039;-73
2021/09/25 06:25:36;;;;;;;0.20;0.20;;;;;;;19.33;66.74;100247.56;4952613;28;20063;-75
2021/09/25 06:28:03;;;;;;;0.15;0.15;;;;;;;19.34;67.03;100251.94;4942266;29;20058;-71
2021/09/25 06:30:28;;;;;;;0.10;0.10;;;;;;;19.35;66.66;100248.03;4958362;28;20077;-74
2021/09/25 06:32:53;;;;;;;0.20;0.20;;;;;;;19.38;66.49;100252.13;4963198;28;20035;-73
2021/09/25 06:35:19;;;;;;;0.10;0.10;;;;;;;19.41;66.84;100256.19;4964104;28;20043;-73
2021/09/25 06:37:47;;;;;;;0.20;0.10;;;;;;;19.43;66.38;100251.13;4929890;29;20040;-74
2021/09/25 06:40:13;;;;;;;0.10;0.10;;;;;;;19.47;67.08;100257.66;4948874;28;20090;-73
2021/09/25 06:42:40;;;;;;;0.30;0.30;;;;;;;19.47;66.96;100254.88;4961919;28;20015;-83
2021/09/25 06:45:06;;;;;;;0.38;0.30;;;;;;;19.50;66.61;100268.06;4953069;28;20023;-79
2021/09/25 06:47:33;;;;;;;0.20;0.20;;;;;;;19.43;66.61;100249.16;4968544;28;20058;-82
2021/09/25 06:50:14;;;;;;;0.90;0.30;;;;;;;19.53;66.39;100250.78;4954516;28;20023;-84
2021/09/25 06:52:50;;;;;;;1.20;0.20;;;;;;;19.54;66.15;100257.94;4947598;28;20096;-82
2021/09/25 06:55:16;;;;;;;0.32;0.20;;;;;;;19.40;66.49;100243.47;4948307;29;20043;-80
2021/09/25 06:57:41;;;;;;;0.85;0.20;;;;;;;19.48;66.53;100253.72;4943542;29;20078;-79
2021/09/25 07:00:07;;;;;;;0.80;0.20;;;;;;;19.57;66.23;100259.25;4942529;28;20242;-72
2021/09/25 07:02:39;;;;;;;0.22;0.22;;;;;;;19.58;66.77;100253.38;4952426;28;20034;-71
2021/09/25 07:05:07;;;;;;;0.25;0.10;;;;;;;19.66;66.60;100251.72;4910414;28;20073;-72
2021/09/25 07:07:33;;;;;;;0.17;0.17;;;;;;;19.72;66.22;100250.38;4925123;28;20031;-70
2021/09/25 07:09:59;;;;;;;0.10;0.10;;;;;;;19.75;66.45;100248.91;4957499;28;20042;-71
2021/09/25 07:12:25;;;;;;;0.20;0.20;;;;;;;19.88;65.87;100256.22;4927072;28;20027;-72
2021/09/25 07:14:52;;;;;;;0.20;0.20;;;;;;;19.94;65.55;100245.75;4931962;29;20164;-73
2021/09/25 07:17:18;;;;;;;0.20;0.20;;;;;;;19.99;66.01;100253.88;4926310;28;20493;-71
2021/09/25 07:19:43;;;;;;;0.25;0.20;;;;;;;20.02;65.60;100259.59;4926857;29;20038;-70
2021/09/25 07:22:09;;;;;;;0.10;0.10;;;;;;;20.06;65.71;100248.63;4942087;28;20035;-71
2021/09/25 07:24:35;;;;;;;0.20;0.20;;;;;;;20.09;65.33;100247.13;4922834;29;20054;-72
2021/09/25 07:27:01;;;;;;;0.30;0.20;;;;;;;20.15;65.59;100256.91;4953655;28;20046;-71
2021/09/25 07:29:27;;;;;;;6.93;0.63;;;;;;;20.19;65.37;100253.13;4956053;28;20031;-71
2021/09/25 07:31:52;;;;;;;0.20;0.10;;;;;;;20.25;65.43;100250.97;4937944;28;20102;-72
2021/09/25 07:34:18;;;;;;;0.10;0.10;;;;;;;20.33;65.03;100258.44;4952778;28;20036;-72
2021/09/25 07:36:43;;;;;;;0.20;0.20;;;;;;;20.36;64.87;100257.75;4929428;29;20094;-70
2021/09/25 07:39:09;;;;;;;0.30;0.30;;;;;;;20.35;64.73;100250.56;4957223;28;20172;-74
2021/09/25 07:41:36;;;;;;;0.30;0.30;;;;;;;20.35;64.75;100260.88;4955491;28;20054;-73
2021/09/25 07:44:03;;;;;;;0.20;0.20;;;;;;;20.36;64.72;100263.31;4929851;28;20031;-72
2021/09/25 07:46:28;;;;;;;0.40;0.30;;;;;;;20.40;64.71;100264.28;4944427;29;20065;-75
2021/09/25 07:48:54;;;;;;;0.28;0.28;;;;;;;20.47;65.05;100263.75;4942837;29;20035;-74
2021/09/25 07:51:20;;;;;;;0.43;0.22;;;;;;;20.52;64.92;100271.88;4961649;28;20029;-73
2021/09/25 07:53:45;;;;;;;0.30;0.30;;;;;;;20.57;64.56;100273.63;4941774;29;20027;-72
2021/09/25 07:56:10;;;;;;;0.60;0.60;;;;;;;20.61;64.70;100274.59;4958345;28;20091;-72
2021/09/25 07:58:36;;;;;;;0.30;0.30;;;;;;;20.65;64.41;100272.75;4961145;28;20035;-73
2021/09/25 08:01:02;;;;;;;0.43;0.43;;;;;;;20.67;64.66;100278.81;4935048;29;20120;-72
2021/09/25 08:03:27;;;;;;;0.40;0.40;;;;;;;20.69;64.00;100276.53;4957011;28;20083;-73
2021/09/25 08:05:53;;;;;;;0.52;0.52;;;;;;;20.68;64.15;100283.22;4944526;29;20486;-77
2021/09/25 08:08:18;;;;;;;0.55;0.55;;;;;;;20.72;64.45;100281.41;4959514;28;20082;-76
2021/09/25 08:10:44;;;;;;;0.50;0.50;;;;;;;20.83;64.59;100275.44;4947288;29;20098;-76
2021/09/25 08:13:09;;;;;;;0.50;0.50;;;;;;;20.99;64.80;100270.88;4959528;28;20042;-77
2021/09/25 08:15:35;;;;;;;0.70;0.70;;;;;;;21.13;64.21;100272.56;4963479;28;20027;-76
2021/09/25 08:18:00;;;;;;;0.38;0.38;;;;;;;21.29;63.97;100273.56;4959853;28;20108;-75
2021/09/25 08:20:26;;;;;;;0.30;0.30;;;;;;;21.40;63.83;100277.53;4959857;28;20040;-74
2021/09/25 08:22:52;;;;;;;0.32;0.32;;;;;;;21.40;63.36;100276.72;4932607;29;20027;-75
2021/09/25 08:25:18;;;;;;;0.50;0.50;;;;;;;21.48;63.32;100283.34;4942289;29;20062;-77
2021/09/25 08:27:47;;;;;;;0.40;0.40;;;;;;;21.52;63.18;100278.75;4955974;28;20031;-72
2021/09/25 08:30:30;;;;;;;0.25;0.22;;;;;;;21.51;63.09;100279.91;4949280;28;20028;-70
2021/09/25 08:32:57;;;;;;;0.28;0.28;;;;;;;21.54;63.15;100288.38;4944043;28;20086;-71
2021/09/25 08:35:23;;;;;;;0.35;0.20;;;;;;;21.65;62.95;100283.19;4927686;29;20098;-72
2021/09/25 08:37:49;;;;;;;0.40;0.40;;;;;;;21.77;62.68;100274.88;4942609;29;20030;-72
2021/09/25 08:40:19;;;;;;;0.22;0.22;;;;;;;21.89;62.57;100271.28;4946400;28;20035;-74
2021/09/25 08:42:45;;;;;;;0.50;0.30;;;;;;;22.05;62.31;100262.22;4928262;29;20390;-74
2021/09/25 08:45:11;;;;;;;0.10;0.10;;;;;;;22.16;62.24;100254.25;4962004;28;20046;-70
2021/09/25 08:47:37;;;;;;;0.28;0.22;;;;;;;22.22;62.02;100261.19;4970931;23;20378;-71
2021/09/25 08:50:05;;;;;;;0.30;0.30;;;;;;;22.30;61.85;100261.06;4982012;28;20042;-70
2021/09/25 08:52:31;;;;;;;0.20;0.20;;;;;;;22.39;61.73;100272.13;4984571;28;20141;-71
2021/09/25 08:54:56;;;;;;;0.85;0.50;;;;;;;22.28;60.72;100277.34;4971437;28;20130;-70
2021/09/25 08:57:22;;;;;;;0.32;0.32;;;;;;;22.19;61.09;100267.47;4994178;28;20114;-70
2021/09/25 08:59:47;;;;;;;0.50;0.50;;;;;;;22.14;61.38;100277.66;4946892;28;20735;-70
2021/09/25 09:02:15;;;;;;;0.38;0.38;;;;;;;22.09;61.13;100272.34;4986874;28;20061;-69
2021/09/25 09:04:52;;;;;;;0.45;0.45;;;;;;;22.08;61.05;100273.50;4994776;28;20046;-70
2021/09/25 09:07:29;;;;;;;0.20;0.20;;;;;;;21.98;61.29;100273.97;4995481;28;20037;-71
2021/09/25 09:09:54;;;;;;;0.32;0.32;;;;;;;21.84;61.51;100277.06;4969581;28;20792;-70
2021/09/25 09:12:27;;;;;;;0.77;0.77;;;;;;;21.78;61.68;100270.09;4995628;28;20034;-69
2021/09/25 09:14:54;;;;;;;0.80;0.80;;;;;;;21.72;62.07;100272.28;4978941;28;20062;-72
2021/09/25 09:17:30;;;;;;;0.50;0.50;;;;;;;21.75;62.05;100268.03;4958288;28;20038;-71
2021/09/25 09:19:56;;;;;;;0.40;0.30;;;;;;;21.77;62.08;100280.44;4984823;28;20031;-71
2021/09/25 09:22:23;;;;;;;0.93;0.70;;;;;;;21.81;61.77;100274.97;4993904;28;20156;-72
2021/09/25 09:24:52;;;;;;;0.40;0.40;;;;;;;21.85;61.90;100270.34;4978505;28;20027;-71
2021/09/25 09:27:26;;;;;;;0.55;0.55;;;;;;;21.98;61.94;100279.53;4990619;28;20086;-72
2021/09/25 09:30:09;;;;;;;0.55;0.55;;;;;;;22.11;61.52;100277.56;4975583;28;20030;-72
2021/09/25 09:32:45;;;;;;;0.70;0.68;;;;;;;22.19;61.70;100281.38;4977895;28;20030;-71
2021/09/25 09:35:18;;;;;;;0.40;0.40;;;;;;;22.41;61.86;100275.34;4993645;28;20022;-72
2021/09/25 09:37:58;;;;;;;0.20;0.20;;;;;;;22.78;61.74;100278.09;5000976;28;20117;-73
2021/09/25 09:40:25;;;;;;;0.50;0.50;;;;;;;22.93;60.60;100272.94;4979469;28;20084;-72
2021/09/25 09:42:52;;;;;;;0.20;0.20;;;;;;;23.01;60.27;100274.75;4969628;28;20428;-70
2021/09/25 09:45:38;;;;;;;0.10;0.10;;;;;;;23.15;59.95;100280.78;4978237;28;20053;-68
2021/09/25 09:48:08;;;;;;;0.50;0.50;;;;;;;23.21;59.68;100283.31;4991522;28;20653;-69
2021/09/25 09:50:38;;;;;;;0.45;0.40;;;;;;;23.20;59.11;100281.69;4991006;28;20022;-69
2021/09/25 09:53:14;;;;;;;0.55;0.38;;;;;;;23.19;59.22;100275.31;4980967;28;20022;-69
2021/09/25 09:55:40;;;;;;;1.27;0.40;;;;;;;23.18;59.67;100280.06;4998063;28;20018;-69
2021/09/25 09:58:05;;;;;;;0.38;0.30;;;;;;;23.29;59.37;100276.75;4998076;28;20037;-70
2021/09/25 10:00:32;;;;;;;0.40;0.40;;;;;;;23.37;59.43;100273.00;4984389;28;20054;-70
2021/09/25 10:02:58;;;;;;;0.28;0.28;;;;;;;23.52;58.99;100266.66;4966476;28;20034;-69
2021/09/25 10:05:23;;;;;;;0.45;0.20;;;;;;;23.78;59.29;100268.09;5000331;28;20058;-69
2021/09/25 10:07:50;;;;;;;0.35;0.20;;;;;;;24.05;58.12;100269.22;5001118;28;20376;-68
2021/09/25 10:10:15;;;;;;;0.30;0.30;;;;;;;24.23;58.06;100266.84;4999862;28;20034;-70
2021/09/25 10:12:41;;;;;;;0.35;0.35;;;;;;;24.41;57.38;100272.03;4995705;28;20135;-69
2021/09/25 10:15:07;;;;;;;0.40;0.40;;;;;;;24.54;57.35;100267.94;4967561;28;20033;-69
2021/09/25 10:17:33;;;;;;;0.25;0.20;;;;;;;24.58;57.09;100265.22;4996455;28;20098;-69
2021/09/25 10:20:02;;;;;;;0.10;0.10;;;;;;;24.57;56.17;100253.25;4988039;28;20038;-69
2021/09/25 10:22:32;;;;;;;0.10;0.10;;;;;;;24.54;56.74;100265.13;4969896;28;20048;-66
2021/09/25 10:25:01;;;;;;;0.10;0.10;;;;;;;24.42;56.59;100256.09;4993832;28;20485;-70
2021/09/25 10:27:36;;;;;;;0.20;0.20;;;;;;;24.30;55.88;100259.78;4980882;28;20480;-70
2021/09/25 10:30:04;;;;;;;0.40;0.40;;;;;;;24.17;56.59;100254.31;4971574;28;20031;-66
2021/09/25 10:32:51;;;;;;;0.30;0.30;;;;;;;24.04;55.64;100259.19;4989132;28;20031;-68
2021/09/25 10:35:19;;;;;;;0.50;0.50;;;;;;;23.94;56.17;100256.16;4988306;28;20400;-69
2021/09/25 10:37:50;;;;;;;0.68;0.40;;;;;;;23.84;55.97;100249.91;4995314;28;20027;-68
2021/09/25 10:40:21;;;;;;;0.40;0.30;;;;;;;23.65;56.55;100252.59;4993133;28;20054;-69
2021/09/25 10:42:55;;;;;;;0.40;0.40;;;;;;;23.56;56.44;100254.78;4993069;28;20061;-68
2021/09/25 10:45:44;;;;;;;0.50;0.50;;;;;;;23.50;56.84;100257.81;4965612;28;20371;-68
2021/09/25 10:48:13;;;;;;;0.63;0.63;;;;;;;23.41;56.45;100251.59;4989702;28;20046;-69
2021/09/25 10:50:55;;;;;;;0.40;0.40;;;;;;;23.35;57.04;100253.03;4991509;28;20035;-69
2021/09/25 10:53:36;;;;;;;0.30;0.20;;;;;;;23.26;56.87;100246.78;4991831;28;20046;-70
2021/09/25 10:56:05;;;;;;;0.20;0.13;;;;;;;23.18;57.68;100248.56;4992536;28;20019;-70
2021/09/25 10:58:36;;;;;;;0.30;0.30;;;;;;;23.18;57.56;100251.38;4977704;28;20072;-68
2021/09/25 11:01:04;;;;;;;0.20;0.20;;;;;;;23.25;57.98;100248.78;4987638;28;20082;-68
2021/09/25 11:06:23;;;;;;;0.77;0.50;;;;;;;23.34;57.49;100243.84;4991806;28;20493;-68
2021/09/25 11:08:55;;;;;;;5.45;0.80;;;;;;;23.36;57.08;100240.69;4980323;28;20058;-69
2021/09/25 11:11:33;;;;;;;0.45;0.45;;;;;;;23.47;57.45;100244.56;4993984;28;20030;-68
2021/09/25 11:14:02;;;;;;;0.60;0.60;;;;;;;23.51;57.70;100239.91;4993574;28;20026;-71
2021/09/25 11:16:46;;;;;;;1.13;0.88;;;;;;;23.55;56.77;100239.19;4972280;28;20465;-69
2021/09/25 11:19:26;;;;;;;0.52;0.52;;;;;;;23.50;56.98;100234.69;4980179;28;20034;-69
2021/09/25 11:22:08;;;;;;;0.63;0.63;;;;;;;23.47;56.85;100244.56;4976979;28;20113;-67
2021/09/25 11:24:44;;;;;;;0.73;0.73;;;;;;;23.41;56.47;100247.97;4996131;28;20025;-68
2021/09/25 11:27:23;;;;;;;1.65;0.88;;;;;;;23.30;56.59;100242.91;4998270;28;20026;-69